Terminal Aerodrome Forecast
Issued by NWS

Home | Current Version | Previous Version | Text Only | Print | Product List | Glossary On
Versions: 1 2 3 4 5 6 7 8 9 10 11 12 13 14 15
000
FTUS41 KBTV 180542
TAFMPV
TAF
KMPV 180542Z 1806/1906 00000KT P6SM BKN200
     FM181300 16004KT 5SM -SN BR OVC035
      TEMPO 1813/1815 2SM -SN BR OVC025
     FM181500 17005KT 1 1/2SM -SN BR OVC025
     FM181800 18006KT P6SM OVC025
     FM182100 18005KT P6SM OVC015
     FM182300 18005KT P6SM VCSH OVC015=

USA.gov is the U.S. government's official web portal to all federal, state and local government web resources and services.